Venedocia, OH

6:13 PM EDT on May 25, 2017 (GMT -0400)
N1ICS - Ridge Township, OH | | Change Station
Active Advisory: Flood Warning

Elev 784 ft 40.85 °N, 84.48 °W | Updated 2 minutes ago

Overcast
Overcast
65.7 °F
Feels Like 65.7 °F
N
0.0
Wind Variable Wind from NNW
Gusts 9.0 mph

Today
High -- | Low -- °F
--% Chance of Precip.
Yesterday
High -- | Low -- °F
Precip. -- in
Pressure 29.54 in
Visibility 10.0 miles
Clouds Mostly Cloudy 1500 ft
Overcast 2400 ft
Dew Point 56 °F
Humidity 70%
Rainfall 0.00 in
Snow Depth Not available.
6:12 AM 8:57 PM
New Moon, 0% visible
SPECI KAOH 252203Z AUTO 31012G18KT 10SM BKN015 OVC024 17/16 A2954 RMK AO2 T01670156
Pressure 29.54 in
Visibility 10.0 miles
Clouds Mostly Cloudy 1500 ft
Overcast 2400 ft
Dew Point 56 °F
Humidity 70%
Rainfall 0.00 in
Snow Depth Not available.
6:12 AM 8:57 PM
New Moon, 0% visible
SPECI KAOH 252203Z AUTO 31012G18KT 10SM BKN015 OVC024 17/16 A2954 RMK AO2 T01670156

Get Your Daily Forecast Email!

Thanks for signing up!

Be on the lookout for a verification email in your inbox.

You'll start receiving severe weather alerts in your inbox..

×

10-Day Weather Forecast

Almanac

Astronomy

May. 25, 2017 Rise Set
Actual Time
Civil Twilight
Nautical Twilight
Astronomical Twilight
Moon
Length of Visible Light
Length of Day
Tomorrow will be .
, % of the Moon is Illuminated

Today's Extremes

State Highs State Lows

Community

WunderPhotos

Category 6

Welcome to Category 6. This is the collective home for Weather Underground's featured writeups by Dr. Jeff Masters (right), Bob Henson (left), Chris Burt, and other regular contributors.

Nearby

Air Quality

  Air Quality AQ Index Pollutant
Not available.

Snow Depth

Station Depth Elevation

Earthquake Activity

City Distance Mag. Time & Date
Minimum magnitude displayed is 2.5.

Coastal Water Temperatures

Place Temperature

Stations

Nearby Weather Stations

Station Location Temp. Windchill Dew Point Humidity Wind Precip. Elev Updated Type
                   

Watches & Warnings

Flood Warning
Issued: 2:27 PM EDT May. 25, 2017 – National Weather Service

... Forecast flooding increased from minor to moderate severity...
the Flood Warning continues for
the Saint Marys River near Decatur
* until Saturday evening.
* At 2 PM Thursday the stage was 19.8 feet and rising.
* Minor flooding is occurring and moderate flooding is forecast.
* Flood stage is 17.0 feet.
* Forecast... the river will rise to crest near 20.3 feet around 8 PM
Thursday may 25 and fall below flood stage around 9 PM Friday may
26.
* At 20.5 feet... Indiana 101 north of Pleasant Mills is closed by
flood water. Extensive agricultural flooding is in progress.
Residents of the east and southeast side of Decatur become
concerned.
* This crest compares to a previous crest of 20.4 feet which occurred
on Apr 12 2013.


Lat... Lon 4093 8506 4094 8504 4084 8491 4082 8494